Time;durP1;ratioP1;P1;durP2;ratioP2;P2;SDS_P1;SDS_P2;PMS_P1;PMS_P2;Temp;Humidity;BMP_temperature;BMP_pressure;BME280_temperature;BME280_humidity;BME280_pressure;Samples;Min_cycle;Max_cycle;Signal;HPM_P1;HPM_P2
2023/05/31 00:01:57;;;;;;;8.70;5.30;;;18.40;99.90;;;;;;4895898;29;20049;-76
2023/05/31 00:04:36;;;;;;;10.40;6.82;;;18.40;99.90;;;;;;4881435;29;20401;-77
2023/05/31 00:07:06;;;;;;;9.37;6.50;;;18.50;99.90;;;;;;4893489;29;20081;-77
2023/05/31 00:09:46;;;;;;;12.88;6.32;;;18.40;99.90;;;;;;4906099;29;20056;-77
2023/05/31 00:12:25;;;;;;;10.05;6.03;;;18.50;99.90;;;;;;4940517;24;20139;-75
2023/05/31 00:14:53;;;;;;;8.50;5.68;;;18.50;99.90;;;;;;4900115;29;20086;-75
2023/05/31 00:17:21;;;;;;;10.38;5.88;;;18.50;99.90;;;;;;4890156;29;20081;-77
2023/05/31 00:20:09;;;;;;;9.60;5.50;;;18.50;99.90;;;;;;4873301;29;20065;-77
2023/05/31 00:22:43;;;;;;;12.88;6.10;;;18.50;99.90;;;;;;4887688;29;20576;-77
2023/05/31 00:25:17;;;;;;;10.67;6.23;;;18.60;99.90;;;;;;4870148;29;20502;-76
2023/05/31 00:27:55;;;;;;;10.50;6.15;;;18.60;99.90;;;;;;4901336;29;20409;-76
2023/05/31 00:31:12;;;;;;;8.95;5.80;;;18.60;99.90;;;;;;4873979;29;20111;-76
2023/05/31 00:33:54;;;;;;;12.35;5.90;;;18.50;99.90;;;;;;4877009;29;20142;-77
2023/05/31 00:36:21;;;;;;;9.27;6.35;;;18.40;99.90;;;;;;4910523;29;20053;-77
2023/05/31 00:38:51;;;;;;;9.38;5.93;;;18.30;99.90;;;;;;4899142;29;20059;-77
2023/05/31 00:41:18;;;;;;;8.95;6.53;;;18.30;99.90;;;;;;4902370;29;20112;-75
2023/05/31 00:43:48;;;;;;;10.90;6.55;;;18.40;99.90;;;;;;4884842;29;20417;-76
2023/05/31 00:46:28;;;;;;;10.30;7.05;;;18.40;99.90;;;;;;4862158;29;20049;-77
2023/05/31 00:48:57;;;;;;;11.38;6.80;;;18.40;99.90;;;;;;4901800;29;20056;-75
2023/05/31 00:51:30;;;;;;;11.15;5.90;;;18.50;99.90;;;;;;4906772;29;20040;-73
2023/05/31 00:54:06;;;;;;;9.45;6.15;;;18.60;99.90;;;;;;4889470;29;20056;-75
2023/05/31 00:57:18;;;;;;;11.25;6.82;;;18.60;99.90;;;;;;4881862;29;20080;-74
2023/05/31 01:00:23;;;;;;;10.65;6.72;;;18.50;99.90;;;;;;4874389;29;20055;-75
2023/05/31 01:03:08;;;;;;;10.93;7.38;;;18.50;99.90;;;;;;4868812;29;20045;-76
2023/05/31 01:05:44;;;;;;;15.23;7.03;;;18.50;99.90;;;;;;4874951;29;20049;-76
2023/05/31 01:08:16;;;;;;;15.93;7.00;;;18.50;99.90;;;;;;4860149;29;20055;-74
2023/05/31 01:10:44;;;;;;;11.02;6.28;;;18.40;99.90;;;;;;4881746;29;20563;-77
2023/05/31 01:13:28;;;;;;;10.38;6.35;;;18.30;99.90;;;;;;4884314;29;20057;-75
2023/05/31 01:16:12;;;;;;;10.27;6.05;;;18.30;99.90;;;;;;4855569;29;20088;-75
2023/05/31 01:18:44;;;;;;;;;;;18.20;99.90;;;;;;4849761;29;20066;-75
2023/05/31 01:21:14;;;;;;;8.80;5.70;;;18.20;99.90;;;;;;4881269;29;19949;-75
2023/05/31 01:24:05;;;;;;;9.00;6.00;;;18.20;99.90;;;;;;4871483;29;20440;-76
2023/05/31 01:26:37;;;;;;;10.10;5.63;;;18.20;99.90;;;;;;4880281;29;20425;-75
2023/05/31 01:29:16;;;;;;;10.95;6.38;;;18.20;99.90;;;;;;4881139;29;20096;-75
2023/05/31 01:31:46;;;;;;;12.00;6.10;;;18.20;99.90;;;;;;4878535;29;20049;-75
2023/05/31 01:34:22;;;;;;;7.93;5.50;;;18.10;99.90;;;;;;4867806;29;20060;-76
2023/05/31 01:36:49;;;;;;;12.75;6.13;;;18.10;99.90;;;;;;4876926;29;20082;-76
2023/05/31 01:39:19;;;;;;;9.93;5.15;;;18.10;99.90;;;;;;4869388;29;20053;-77
2023/05/31 01:41:48;;;;;;;8.98;4.93;;;18.00;99.90;;;;;;4870201;29;20045;-75
2023/05/31 01:44:18;;;;;;;7.53;4.55;;;18.00;99.90;;;;;;4879632;29;20060;-76
2023/05/31 01:46:48;;;;;;;9.20;5.50;;;17.40;99.90;;;;;;4864891;29;20050;-74
2023/05/31 01:49:16;;;;;;;7.38;4.93;;;16.90;99.90;;;;;;4861323;29;20058;-75
2023/05/31 01:51:45;;;;;;;9.32;4.93;;;16.80;99.90;;;;;;4844653;29;20065;-73
2023/05/31 01:54:13;;;;;;;9.10;5.30;;;16.80;99.90;;;;;;4863267;29;20061;-74
2023/05/31 01:56:43;;;;;;;9.80;5.40;;;16.90;99.90;;;;;;4864590;29;20320;-74
2023/05/31 01:59:12;;;;;;;6.63;4.53;;;16.70;99.90;;;;;;4877896;29;20118;-77
2023/05/31 02:01:42;;;;;;;10.13;4.97;;;16.60;99.90;;;;;;4891975;29;20398;-77
2023/05/31 02:04:37;;;;;;;10.85;5.10;;;16.40;99.90;;;;;;4861663;29;20077;-76
2023/05/31 02:07:22;;;;;;;7.75;4.97;;;16.30;99.90;;;;;;4858060;29;20049;-75
2023/05/31 02:10:02;;;;;;;12.95;5.70;;;16.30;99.90;;;;;;4919716;23;20045;-77
2023/05/31 02:12:54;;;;;;;9.65;5.60;;;16.20;99.90;;;;;;4895702;29;20080;-76
2023/05/31 02:15:23;;;;;;;8.88;5.57;;;16.40;99.90;;;;;;4919750;29;20369;-75
2023/05/31 02:17:51;;;;;;;12.63;6.53;;;16.50;99.90;;;;;;4893642;29;20502;-76
2023/05/31 02:20:18;;;;;;;10.88;6.47;;;16.60;99.90;;;;;;4925736;29;20057;-75
2023/05/31 02:22:49;;;;;;;12.82;6.18;;;16.90;99.90;;;;;;4928995;29;20039;-76
2023/05/31 02:25:21;;;;;;;10.25;6.50;;;17.20;99.90;;;;;;4898450;29;20054;-78
2023/05/31 02:27:48;;;;;;;10.80;6.20;;;17.30;99.90;;;;;;4895842;29;20063;-75
2023/05/31 02:30:18;;;;;;;10.45;5.78;;;17.10;99.90;;;;;;4920011;29;20070;-75
2023/05/31 02:32:46;;;;;;;8.65;5.97;;;17.30;99.90;;;;;;4909186;29;20052;-75
2023/05/31 02:35:13;;;;;;;10.20;6.18;;;17.40;99.90;;;;;;4895779;29;20127;-75
2023/05/31 02:37:41;;;;;;;14.10;6.55;;;17.40;99.90;;;;;;4903351;29;20049;-74
2023/05/31 02:40:09;;;;;;;9.82;6.43;;;17.40;99.90;;;;;;4895359;29;20104;-75
2023/05/31 02:42:40;;;;;;;12.60;6.68;;;17.40;99.90;;;;;;4922064;29;20139;-74
2023/05/31 02:45:09;;;;;;;13.32;6.13;;;17.40;99.90;;;;;;4907111;29;20060;-75
2023/05/31 02:47:38;;;;;;;8.88;5.85;;;17.10;99.90;;;;;;4911975;29;20564;-75
2023/05/31 02:50:10;;;;;;;11.30;6.05;;;16.50;99.90;;;;;;4896373;29;20559;-75
2023/05/31 02:52:37;;;;;;;10.30;6.15;;;16.20;99.90;;;;;;4905724;29;20130;-76
2023/05/31 02:55:05;;;;;;;9.43;6.15;;;16.10;99.90;;;;;;4883597;29;20512;-76
2023/05/31 02:57:33;;;;;;;10.98;6.65;;;16.20;99.90;;;;;;4897265;29;20056;-76
2023/05/31 03:00:12;;;;;;;12.80;6.93;;;16.20;99.90;;;;;;4911972;29;20064;-74
2023/05/31 03:02:40;;;;;;;11.07;6.72;;;16.30;99.90;;;;;;4912867;29;20394;-76
2023/05/31 03:05:09;;;;;;;12.15;7.13;;;16.40;99.90;;;;;;4915656;29;20080;-75
2023/05/31 03:07:36;;;;;;;10.43;6.60;;;16.60;99.90;;;;;;4917396;29;20041;-74
2023/05/31 03:10:04;;;;;;;9.63;6.40;;;16.90;99.90;;;;;;4897640;29;20071;-75
2023/05/31 03:12:32;;;;;;;15.27;6.93;;;17.10;99.90;;;;;;4909024;29;20058;-75
2023/05/31 03:15:00;;;;;;;10.52;6.68;;;17.00;99.90;;;;;;4910084;29;20083;-75
2023/05/31 03:17:28;;;;;;;11.50;6.90;;;16.70;99.90;;;;;;4891171;29;20083;-74
2023/05/31 03:19:57;;;;;;;12.70;6.50;;;16.60;99.90;;;;;;4928837;29;20056;-75
2023/05/31 03:22:25;;;;;;;11.93;6.50;;;16.50;99.90;;;;;;4926594;29;20062;-74
2023/05/31 03:24:53;;;;;;;11.10;6.88;;;16.50;99.90;;;;;;4910048;29;20572;-74
2023/05/31 03:27:34;;;;;;;10.10;7.07;;;16.40;99.90;;;;;;4897499;29;20053;-76
2023/05/31 03:30:01;;;;;;;10.93;7.03;;;16.40;99.90;;;;;;4920202;29;20420;-76
2023/05/31 03:32:30;;;;;;;11.20;7.05;;;16.70;99.90;;;;;;4902495;29;20044;-76
2023/05/31 03:34:57;;;;;;;13.48;6.75;;;16.70;99.90;;;;;;4907551;29;20056;-75
2023/05/31 03:37:24;;;;;;;11.20;6.57;;;16.80;99.90;;;;;;4875372;29;20061;-76
2023/05/31 03:39:52;;;;;;;9.52;6.60;;;16.70;99.90;;;;;;4919670;29;20484;-76
2023/05/31 03:42:19;;;;;;;10.32;6.60;;;17.20;99.90;;;;;;4908934;29;20055;-75
2023/05/31 03:44:47;;;;;;;13.23;7.35;;;17.40;99.90;;;;;;4901701;29;20143;-74
2023/05/31 03:47:35;;;;;;;10.10;6.47;;;17.50;99.90;;;;;;4901585;29;20057;-77
2023/05/31 03:50:06;;;;;;;12.38;6.43;;;17.70;99.90;;;;;;4900510;29;20052;-75
2023/05/31 03:52:37;;;;;;;12.23;6.53;;;17.80;99.90;;;;;;4898631;29;20382;-75
2023/05/31 03:55:05;;;;;;;11.93;6.97;;;17.70;99.90;;;;;;4919406;29;20076;-75
2023/05/31 03:57:32;;;;;;;10.50;6.70;;;17.80;99.90;;;;;;4889144;29;20044;-74
2023/05/31 04:00:00;;;;;;;11.05;6.93;;;17.90;99.90;;;;;;4891365;29;20088;-74
2023/05/31 04:02:28;;;;;;;10.45;7.03;;;18.00;99.90;;;;;;4911199;29;20060;-76
2023/05/31 04:04:55;;;;;;;10.80;6.60;;;18.10;99.90;;;;;;4902550;29;20146;-75
2023/05/31 04:07:23;;;;;;;10.45;5.85;;;18.10;99.90;;;;;;4907035;29;20040;-76
2023/05/31 04:09:56;;;;;;;12.15;7.90;;;18.20;99.90;;;;;;4907934;29;20536;-76
2023/05/31 04:12:31;;;;;;;13.65;7.70;;;18.30;99.90;;;;;;4870583;29;20061;-76
2023/05/31 04:15:05;;;;;;;12.02;7.13;;;18.30;99.90;;;;;;4897783;29;20067;-79
2023/05/31 04:17:48;;;;;;;9.82;7.45;;;18.30;99.90;;;;;;5494395;23;20064;-77
2023/05/31 04:20:18;;;;;;;12.85;8.10;;;18.10;99.90;;;;;;4891937;29;20163;-76
2023/05/31 04:22:45;;;;;;;13.25;6.03;;;18.00;99.90;;;;;;4925251;29;20462;-76
2023/05/31 04:25:13;;;;;;;13.02;6.50;;;17.90;99.90;;;;;;4900316;29;20508;-77
2023/05/31 04:27:40;;;;;;;9.45;6.47;;;18.00;99.90;;;;;;4884603;29;20044;-76
2023/05/31 04:30:09;;;;;;;13.25;6.70;;;18.10;99.90;;;;;;4886299;29;20080;-79
2023/05/31 04:32:50;;;;;;;13.77;6.32;;;18.10;99.90;;;;;;4905842;29;20052;-77
2023/05/31 04:35:18;;;;;;;8.95;6.28;;;18.10;99.90;;;;;;4915804;29;20057;-75
2023/05/31 04:37:59;;;;;;;11.48;6.03;;;18.20;99.90;;;;;;4906548;29;20052;-76
2023/05/31 04:40:26;;;;;;;8.63;5.35;;;18.10;99.90;;;;;;4896914;29;20080;-75
2023/05/31 04:42:57;;;;;;;14.25;6.47;;;18.10;99.90;;;;;;4898212;29;20151;-75
2023/05/31 04:45:27;;;;;;;13.07;6.22;;;17.90;99.90;;;;;;4888861;29;20555;-77
2023/05/31 04:47:55;;;;;;;12.48;5.80;;;17.90;99.90;;;;;;4915866;29;20040;-76
2023/05/31 04:50:48;;;;;;;9.15;5.80;;;17.90;99.90;;;;;;4957057;23;20079;-75
2023/05/31 04:53:18;;;;;;;12.27;5.85;;;17.90;99.90;;;;;;4888483;29;20087;-76
2023/05/31 04:56:06;;;;;;;13.32;6.15;;;17.80;99.90;;;;;;4896546;29;20080;-75
2023/05/31 04:59:32;;;;;;;10.45;6.65;;;17.80;99.90;;;;;;4884621;29;20053;-74
2023/05/31 05:02:06;;;;;;;116.25;76.28;;;17.80;99.90;;;;;;4890836;29;20060;-74
2023/05/31 05:05:04;;;;;;;119.70;82.15;;;18.10;99.90;;;;;;4877634;29;20148;-76
2023/05/31 05:07:53;;;;;;;56.80;39.60;;;18.20;99.90;;;;;;4855790;29;20075;-73
2023/05/31 05:10:32;;;;;;;;;;;18.30;99.90;;;;;;4864402;29;20060;-72
2023/05/31 05:13:00;;;;;;;58.65;36.42;;;18.40;99.90;;;;;;4877613;29;20295;-72
2023/05/31 05:15:27;;;;;;;64.13;43.42;;;18.40;99.90;;;;;;4886041;29;20053;-74
2023/05/31 05:17:58;;;;;;;49.22;32.83;;;18.40;99.90;;;;;;4890557;29;20400;-73
2023/05/31 05:20:26;;;;;;;17.98;11.07;;;18.30;99.90;;;;;;4879792;29;20056;-75
2023/05/31 05:22:53;;;;;;;18.63;10.27;;;18.30;99.90;;;;;;4882942;29;20243;-77
2023/05/31 05:25:26;;;;;;;16.05;8.93;;;18.30;99.90;;;;;;4872906;29;20087;-74
2023/05/31 05:27:59;;;;;;;14.00;8.82;;;18.20;99.90;;;;;;4850468;29;20067;-75
2023/05/31 05:30:27;;;;;;;12.88;8.35;;;18.30;99.90;;;;;;4880852;29;20461;-76
2023/05/31 05:32:54;;;;;;;17.38;8.73;;;18.30;99.90;;;;;;4877686;29;20045;-75
2023/05/31 05:35:22;;;;;;;15.95;9.82;;;18.40;99.90;;;;;;4869688;29;20137;-74
2023/05/31 05:37:50;;;;;;;15.15;8.70;;;18.40;99.90;;;;;;4874369;29;20532;-74
2023/05/31 05:40:23;;;;;;;16.05;11.27;;;18.40;99.90;;;;;;4891709;29;20092;-77
2023/05/31 05:42:53;;;;;;;100.55;60.92;;;18.40;99.90;;;;;;4868395;29;20056;-76
2023/05/31 05:45:20;;;;;;;46.47;30.38;;;18.40;99.90;;;;;;4901042;29;20085;-74
2023/05/31 05:47:48;;;;;;;15.63;12.40;;;18.50;99.90;;;;;;4900624;29;20083;-76
2023/05/31 05:50:16;;;;;;;16.10;9.73;;;18.50;99.90;;;;;;4875727;29;20749;-77
2023/05/31 05:53:02;;;;;;;17.80;9.32;;;18.40;99.90;;;;;;4882461;29;20055;-73
2023/05/31 05:55:39;;;;;;;18.00;9.15;;;18.50;99.90;;;;;;4864019;29;20073;-74
2023/05/31 05:58:06;;;;;;;14.25;8.38;;;18.60;99.90;;;;;;4897934;29;20568;-75
2023/05/31 06:00:34;;;;;;;16.85;10.38;;;18.70;99.90;;;;;;4886710;29;20052;-77
2023/05/31 06:03:23;;;;;;;16.23;9.18;;;18.80;99.90;;;;;;4872204;29;20053;-75
2023/05/31 06:06:07;;;;;;;16.40;9.30;;;18.60;99.90;;;;;;4868174;29;20093;-75
2023/05/31 06:08:36;;;;;;;16.95;8.68;;;18.70;99.90;;;;;;4880569;29;20071;-73
2023/05/31 06:11:04;;;;;;;14.45;8.50;;;19.00;99.90;;;;;;4891247;29;20053;-74
2023/05/31 06:13:31;;;;;;;18.73;9.55;;;19.00;99.90;;;;;;4896734;29;20052;-76
2023/05/31 06:15:58;;;;;;;16.95;9.43;;;18.80;99.90;;;;;;4874505;29;20564;-74
2023/05/31 06:18:26;;;;;;;18.52;9.23;;;19.00;99.90;;;;;;4883721;29;20068;-76
2023/05/31 06:20:55;;;;;;;14.98;9.20;;;19.10;99.90;;;;;;4879877;29;20101;-73
2023/05/31 06:23:22;;;;;;;13.18;8.73;;;19.10;99.90;;;;;;4878562;29;20469;-72
2023/05/31 06:25:58;;;;;;;14.70;9.52;;;19.00;99.90;;;;;;4878453;29;20053;-73
2023/05/31 06:28:28;;;;;;;11.68;8.45;;;19.00;99.90;;;;;;4870763;29;20077;-75
2023/05/31 06:31:00;;;;;;;15.35;9.32;;;19.10;99.90;;;;;;4873225;29;20139;-75
2023/05/31 06:33:38;;;;;;;15.73;8.55;;;19.10;99.90;;;;;;4853534;29;20465;-76
2023/05/31 06:36:05;;;;;;;14.48;9.02;;;19.10;99.90;;;;;;4858911;29;20052;-75
2023/05/31 06:38:53;;;;;;;16.45;8.70;;;19.10;99.90;;;;;;4875725;29;20497;-74
2023/05/31 06:41:44;;;;;;;16.55;9.05;;;19.20;99.90;;;;;;4862812;29;20677;-73
2023/05/31 06:44:11;;;;;;;13.60;9.38;;;19.20;99.90;;;;;;4883958;29;20049;-74
2023/05/31 06:46:40;;;;;;;13.43;9.55;;;19.30;99.90;;;;;;4900959;23;20052;-76
2023/05/31 06:49:21;;;;;;;15.10;10.15;;;19.40;99.90;;;;;;4901409;29;20052;-75
2023/05/31 06:51:50;;;;;;;16.88;9.75;;;19.40;99.90;;;;;;4910419;29;20060;-73
2023/05/31 06:54:20;;;;;;;13.48;7.85;;;19.40;99.90;;;;;;4899167;29;20048;-74
2023/05/31 06:56:47;;;;;;;12.18;8.23;;;19.50;99.90;;;;;;4911533;29;20091;-74
2023/05/31 06:59:14;;;;;;;13.23;9.07;;;19.60;99.90;;;;;;4907781;29;20396;-74
2023/05/31 07:01:42;;;;;;;16.05;9.27;;;19.80;99.90;;;;;;4909033;29;20048;-75
2023/05/31 07:04:12;;;;;;;15.13;8.48;;;19.90;99.90;;;;;;4900377;29;20044;-73
2023/05/31 07:06:42;;;;;;;14.52;9.32;;;20.00;99.90;;;;;;4885310;29;20060;-73
2023/05/31 07:09:12;;;;;;;13.90;8.40;;;20.10;99.90;;;;;;4880741;29;20052;-74
2023/05/31 07:11:41;;;;;;;15.93;8.57;;;20.10;99.90;;;;;;4873699;29;20064;-75
2023/05/31 07:14:28;;;;;;;14.25;9.63;;;20.30;99.90;;;;;;4894696;29;20048;-74
2023/05/31 07:16:56;;;;;;;13.40;9.75;;;20.30;99.90;;;;;;4911109;29;20453;-72
2023/05/31 07:19:44;;;;;;;15.48;9.38;;;20.20;99.90;;;;;;4871785;29;20405;-78
2023/05/31 07:22:34;;;;;;;16.58;9.25;;;20.40;99.90;;;;;;4886596;29;20059;-76
2023/05/31 07:25:09;;;;;;;13.90;9.23;;;20.20;99.90;;;;;;4901510;29;20052;-74
2023/05/31 07:27:46;;;;;;;13.90;8.15;;;20.30;99.90;;;;;;4912927;29;20076;-75
2023/05/31 07:30:32;;;;;;;18.27;8.85;;;20.40;99.90;;;;;;4909318;29;20091;-74
2023/05/31 07:33:01;;;;;;;12.47;7.93;;;20.50;99.90;;;;;;4912963;29;20057;-75
2023/05/31 07:35:29;;;;;;;14.52;8.70;;;20.50;99.90;;;;;;4901950;29;20116;-76
2023/05/31 07:37:58;;;;;;;13.88;7.82;;;20.70;99.90;;;;;;4906995;29;20109;-72
2023/05/31 07:40:34;;;;;;;13.50;8.38;;;20.90;99.90;;;;;;4896752;29;20055;-74
2023/05/31 07:43:02;;;;;;;12.10;8.45;;;21.20;99.90;;;;;;4887600;29;20072;-75
2023/05/31 07:45:30;;;;;;;16.63;8.52;;;21.00;99.90;;;;;;4903832;29;20052;-73
2023/05/31 07:48:00;;;;;;;13.00;7.50;;;20.90;99.90;;;;;;4905573;23;20105;-73
2023/05/31 07:50:45;;;;;;;14.07;7.20;;;21.20;99.90;;;;;;4893949;29;20100;-73
2023/05/31 07:53:28;;;;;;;11.65;7.75;;;21.40;99.90;;;;;;4868038;29;20129;-75
2023/05/31 07:56:06;;;;;;;12.05;7.45;;;21.60;99.90;;;;;;4889926;29;20557;-77
2023/05/31 07:59:23;;;;;;;;;;;21.90;99.90;;;;;;4887630;29;20052;-75
2023/05/31 08:02:25;;;;;;;12.55;7.38;;;21.50;99.90;;;;;;4826983;29;19932;-75
2023/05/31 08:05:04;;;;;;;15.07;7.45;;;21.20;99.90;;;;;;4915605;23;20099;-76
2023/05/31 08:07:35;;;;;;;10.03;6.13;;;21.40;99.90;;;;;;4905994;29;20076;-73
2023/05/31 08:10:02;;;;;;;;;;;21.40;99.90;;;;;;4911104;29;20052;-77
2023/05/31 08:12:42;;;;;;;10.10;6.05;;;21.40;99.90;;;;;;4912537;29;20328;-74
2023/05/31 08:15:12;;;;;;;10.48;6.22;;;21.40;99.90;;;;;;4909687;29;20048;-76
2023/05/31 08:17:43;;;;;;;11.45;5.93;;;21.40;99.90;;;;;;4913178;29;20049;-75
2023/05/31 08:20:14;;;;;;;13.07;6.35;;;21.30;99.90;;;;;;4887518;29;20049;-77
2023/05/31 08:22:53;;;;;;;10.70;5.75;;;21.40;99.90;;;;;;4910630;29;20047;-74
2023/05/31 08:26:12;;;;;;;10.97;6.03;;;21.50;99.90;;;;;;4897997;29;20084;-79
2023/05/31 08:28:45;;;;;;;9.23;5.38;;;21.50;99.90;;;;;;4868004;29;20352;-79
2023/05/31 08:31:14;;;;;;;8.38;4.90;;;21.30;99.90;;;;;;4875692;29;20453;-75
2023/05/31 08:34:09;;;;;;;8.40;5.70;;;21.40;99.90;;;;;;4871848;29;20063;-78
2023/05/31 08:36:57;;;;;;;8.85;5.10;;;21.60;99.90;;;;;;4891686;29;20122;-78
2023/05/31 08:39:48;;;;;;;8.23;4.57;;;21.50;99.90;;;;;;4908151;29;20057;-75
2023/05/31 08:43:02;;;;;;;6.47;4.35;;;21.60;99.90;;;;;;4902832;29;20052;-77
2023/05/31 08:46:00;;;;;;;7.32;3.95;;;21.90;99.90;;;;;;4886903;29;20083;-78
2023/05/31 08:52:03;;;;;;;7.65;5.03;;;21.90;99.90;;;;;;4895758;29;20575;-74
2023/05/31 08:54:31;;;;;;;8.00;4.30;;;21.80;99.90;;;;;;4895724;29;20061;-77
2023/05/31 08:57:02;;;;;;;6.45;4.38;;;21.60;99.90;;;;;;4886774;29;20057;-74
2023/05/31 08:59:37;;;;;;;8.55;5.25;;;21.80;99.90;;;;;;4906409;29;20056;-75
2023/05/31 09:02:17;;;;;;;7.40;4.18;;;22.00;99.90;;;;;;4890581;29;20065;-75
2023/05/31 09:04:46;;;;;;;7.05;3.80;;;22.20;99.90;;;;;;4887643;29;20057;-78
2023/05/31 09:07:19;;;;;;;6.43;3.90;;;22.10;99.90;;;;;;4904194;29;20614;-78
2023/05/31 09:10:10;;;;;;;7.60;4.18;;;22.30;99.90;;;;;;4885692;29;20056;-75
2023/05/31 09:12:38;;;;;;;6.95;4.00;;;22.30;99.90;;;;;;4907820;29;20048;-76
2023/05/31 09:15:08;;;;;;;7.72;4.50;;;22.40;99.90;;;;;;4881906;29;20131;-75
2023/05/31 09:18:53;;;;;;;;;;;;;;;;;;;;;
2023/05/31 09:21:40;;;;;;;7.07;4.55;;;22.70;99.90;;;;;;4857376;29;20049;-81
2023/05/31 09:24:22;;;;;;;6.38;3.90;;;22.80;99.90;;;;;;4837055;29;20060;-76
2023/05/31 09:27:22;;;;;;;6.60;4.07;;;22.80;99.90;;;;;;4859595;29;20473;-81
2023/05/31 09:30:05;;;;;;;6.20;3.72;;;22.80;99.90;;;;;;4866168;29;20061;-81
2023/05/31 09:32:38;;;;;;;8.15;4.38;;;22.80;99.90;;;;;;4873471;29;20117;-79
2023/05/31 09:36:19;;;;;;;9.20;3.90;;;23.20;99.90;;;;;;4901421;29;20108;-79
2023/05/31 09:39:37;;;;;;;6.38;3.95;;;23.10;99.90;;;;;;4914319;29;20108;-79
2023/05/31 09:45:54;;;;;;;8.50;4.57;;;23.20;99.90;;;;;;4912259;29;20049;-83
2023/05/31 09:48:24;;;;;;;6.53;3.97;;;23.20;99.90;;;;;;4905440;29;20056;-78
2023/05/31 09:50:52;;;;;;;7.90;4.68;;;23.10;99.90;;;;;;4907351;29;20049;-77
2023/05/31 09:53:20;;;;;;;7.68;4.97;;;23.20;99.90;;;;;;4903921;29;20048;-78
2023/05/31 09:55:47;;;;;;;6.65;4.55;;;23.60;99.90;;;;;;4875659;29;20473;-76
2023/05/31 09:58:31;;;;;;;9.45;4.65;;;23.70;99.90;;;;;;4896567;29;20517;-76
2023/05/31 10:00:59;;;;;;;;;;;23.60;99.90;;;;;;4932382;23;20135;-77
2023/05/31 10:03:29;;;;;;;10.85;4.43;;;23.80;99.90;;;;;;4910901;29;19919;-75
2023/05/31 10:05:57;;;;;;;12.35;4.93;;;23.90;99.90;;;;;;4910450;29;20583;-74
2023/05/31 10:08:52;;;;;;;6.80;3.92;;;24.00;99.90;;;;;;4894163;29;20072;-76
2023/05/31 10:11:50;;;;;;;6.60;4.00;;;23.70;99.90;;;;;;4897670;29;20096;-75
2023/05/31 10:14:35;;;;;;;7.63;4.00;;;24.10;99.90;;;;;;4889886;29;20079;-76
2023/05/31 10:17:10;;;;;;;8.43;3.80;;;24.00;99.90;;;;;;4894436;29;20056;-77
2023/05/31 10:19:47;;;;;;;5.88;3.72;;;24.10;99.90;;;;;;4904679;29;20127;-76
2023/05/31 10:22:43;;;;;;;8.48;3.88;;;24.30;99.90;;;;;;4906705;29;20161;-78
2023/05/31 10:25:35;;;;;;;7.00;3.90;;;24.20;99.90;;;;;;4914483;29;20053;-78
2023/05/31 10:29:40;;;;;;;6.35;3.45;;;24.40;99.90;;;;;;4922650;29;20131;-78
2023/05/31 10:33:03;;;;;;;8.18;3.78;;;23.60;99.90;;;;;;4901973;29;20095;-76
2023/05/31 10:36:10;;;;;;;7.88;3.65;;;23.30;99.90;;;;;;4912361;29;20058;-74
2023/05/31 10:38:52;;;;;;;7.47;3.90;;;23.30;99.90;;;;;;4911076;29;20119;-75
2023/05/31 10:41:22;;;;;;;6.32;3.80;;;23.50;99.90;;;;;;4917437;29;20151;-73
2023/05/31 10:44:00;;;;;;;7.13;4.15;;;23.90;99.90;;;;;;4897152;29;20056;-76
2023/05/31 10:46:30;;;;;;;5.93;3.58;;;24.00;99.90;;;;;;4904065;29;20041;-74
2023/05/31 10:49:10;;;;;;;8.63;3.80;;;24.30;99.90;;;;;;4888617;29;20060;-77
2023/05/31 10:51:46;;;;;;;6.50;3.60;;;24.50;99.90;;;;;;4888121;29;20067;-76
2023/05/31 10:54:29;;;;;;;8.90;3.70;;;25.20;99.90;;;;;;4905665;29;20060;-76
2023/05/31 10:57:03;;;;;;;6.90;3.83;;;25.30;99.90;;;;;;4880884;29;20412;-70
2023/05/31 10:59:42;;;;;;;10.52;3.70;;;25.10;99.80;;;;;;4893585;29;20060;-76
2023/05/31 11:02:10;;;;;;;6.25;3.70;;;25.30;99.30;;;;;;4911443;29;20466;-77
2023/05/31 11:04:43;;;;;;;6.63;3.67;;;25.30;99.90;;;;;;4900575;29;20024;-80
2023/05/31 11:07:58;;;;;;;9.18;4.22;;;25.10;99.90;;;;;;4889331;29;20064;-76
2023/05/31 11:10:31;;;;;;;6.10;3.60;;;25.00;99.90;;;;;;4898635;29;20056;-76
2023/05/31 11:14:30;;;;;;;7.25;3.72;;;24.50;99.90;;;;;;4890103;29;20621;-77
2023/05/31 11:17:03;;;;;;;7.65;3.58;;;24.00;99.90;;;;;;4900614;29;20551;-73
2023/05/31 11:19:33;;;;;;;7.63;4.40;;;24.00;99.90;;;;;;4907370;29;20086;-76
2023/05/31 11:22:18;;;;;;;5.72;3.58;;;24.30;99.90;;;;;;4889617;29;20708;-76
2023/05/31 11:25:09;;;;;;;5.20;3.00;;;24.10;99.90;;;;;;4904477;29;20052;-76
2023/05/31 11:27:41;;;;;;;4.53;2.42;;;23.60;99.90;;;;;;4875371;29;20063;-76
2023/05/31 11:30:12;;;;;;;3.47;2.10;;;23.00;99.90;;;;;;4893206;29;20052;-77
2023/05/31 11:32:40;;;;;;;3.65;1.80;;;22.90;99.90;;;;;;4886652;29;20067;-77
2023/05/31 11:35:16;;;;;;;4.88;2.25;;;22.60;99.90;;;;;;4923370;29;20052;-75
2023/05/31 11:37:45;;;;;;;4.50;1.98;;;22.40;99.90;;;;;;4892582;29;20055;-75
2023/05/31 11:40:17;;;;;;;4.75;2.00;;;22.20;99.90;;;;;;4919665;29;20447;-74
2023/05/31 11:42:46;;;;;;;5.57;2.10;;;22.20;99.90;;;;;;4884571;29;20056;-77
2023/05/31 11:45:25;;;;;;;5.38;2.10;;;21.90;99.90;;;;;;4903928;29;20045;-78
2023/05/31 11:48:34;;;;;;;3.60;2.03;;;21.80;99.90;;;;;;4877045;29;20477;-77
2023/05/31 11:51:26;;;;;;;5.78;2.65;;;21.70;99.90;;;;;;4909664;29;20075;-78
2023/05/31 11:53:56;;;;;;;;;;;21.40;99.90;;;;;;4906746;29;20077;-79
2023/05/31 11:56:32;;;;;;;;;;;21.30;99.90;;;;;;4910437;29;19923;-76
2023/05/31 11:59:17;;;;;;;5.75;2.67;;;21.20;99.90;;;;;;4906986;29;19966;-76
2023/05/31 12:01:44;;;;;;;4.13;2.30;;;21.20;99.90;;;;;;4887089;29;20060;-77
2023/05/31 12:04:11;;;;;;;7.75;2.60;;;21.10;99.90;;;;;;4890111;29;20504;-76
2023/05/31 12:06:39;;;;;;;10.90;3.25;;;21.30;99.90;;;;;;4894155;29;20057;-76
2023/05/31 12:09:10;;;;;;;7.50;2.75;;;21.30;99.90;;;;;;4902554;29;20037;-77
2023/05/31 12:11:38;;;;;;;5.32;2.88;;;21.40;99.90;;;;;;4891707;29;20097;-77
2023/05/31 12:14:11;;;;;;;5.15;2.60;;;21.40;99.90;;;;;;4902727;29;20060;-75
2023/05/31 12:16:50;;;;;;;5.57;2.40;;;21.40;99.90;;;;;;4889063;29;20052;-76
2023/05/31 12:19:32;;;;;;;4.55;2.60;;;21.30;99.90;;;;;;4894602;29;20156;-77
2023/05/31 12:22:27;;;;;;;4.97;2.65;;;21.30;99.90;;;;;;4876639;29;20053;-74
2023/05/31 12:25:06;;;;;;;6.70;2.67;;;21.20;99.90;;;;;;4892699;29;20454;-77
2023/05/31 12:27:36;;;;;;;9.57;2.83;;;21.10;99.90;;;;;;4892249;29;20417;-76
2023/05/31 12:30:26;;;;;;;4.95;2.42;;;21.00;99.90;;;;;;4887072;29;20060;-75
2023/05/31 12:33:11;;;;;;;4.72;2.65;;;20.90;99.90;;;;;;4893864;29;20412;-76
2023/05/31 12:36:22;;;;;;;5.90;2.95;;;20.80;99.90;;;;;;4887155;29;20057;-77
2023/05/31 12:39:29;;;;;;;5.10;2.60;;;20.90;99.90;;;;;;4876506;29;20084;-76
2023/05/31 12:41:58;;;;;;;5.97;2.60;;;21.00;99.90;;;;;;4900627;29;20052;-76
2023/05/31 12:44:27;;;;;;;4.38;2.45;;;21.10;99.90;;;;;;4885717;29;20501;-76
2023/05/31 12:47:07;;;;;;;8.60;2.83;;;21.00;99.90;;;;;;4901874;29;20108;-77
2023/05/31 12:49:37;;;;;;;8.05;2.65;;;20.90;99.90;;;;;;4906555;29;20045;-78
2023/05/31 12:52:08;;;;;;;7.43;2.95;;;20.80;99.90;;;;;;4906017;29;20060;-75
2023/05/31 12:54:40;;;;;;;6.45;2.67;;;20.70;99.90;;;;;;4898422;29;20045;-75
2023/05/31 12:57:29;;;;;;;6.18;2.50;;;20.70;99.90;;;;;;4908834;29;20055;-76
2023/05/31 13:00:11;;;;;;;4.90;2.40;;;20.60;99.90;;;;;;4896543;29;20151;-75
2023/05/31 13:02:41;;;;;;;8.90;3.20;;;20.50;99.90;;;;;;4899156;29;20135;-76
2023/05/31 13:05:12;;;;;;;5.97;2.30;;;20.50;99.90;;;;;;4894472;29;20080;-75
2023/05/31 13:07:46;;;;;;;6.50;2.80;;;20.50;99.90;;;;;;4877014;29;20142;-76
2023/05/31 13:10:27;;;;;;;5.13;2.83;;;20.50;99.90;;;;;;4906153;29;20048;-76
2023/05/31 13:13:14;;;;;;;5.78;2.90;;;20.50;99.90;;;;;;4897437;29;20060;-74
2023/05/31 13:15:57;;;;;;;6.35;3.15;;;20.40;99.90;;;;;;4902091;29;20060;-75
2023/05/31 13:18:33;;;;;;;5.32;3.25;;;20.60;99.90;;;;;;4906706;29;20131;-76
2023/05/31 13:21:09;;;;;;;6.32;3.40;;;20.70;99.90;;;;;;4907723;29;20062;-75
2023/05/31 13:23:37;;;;;;;5.20;2.83;;;20.70;99.90;;;;;;4914790;29;20052;-77
2023/05/31 13:29:37;;;;;;;7.35;2.78;;;20.40;99.90;;;;;;4900466;29;20071;-74
2023/05/31 13:32:34;;;;;;;7.57;4.13;;;20.30;99.90;;;;;;4897626;29;20056;-75
2023/05/31 13:35:09;;;;;;;5.22;3.38;;;20.20;99.90;;;;;;4934934;29;20052;-76
2023/05/31 13:37:38;;;;;;;9.43;3.60;;;20.10;99.90;;;;;;4890195;29;20087;-77
2023/05/31 13:40:50;;;;;;;6.32;3.25;;;20.10;99.90;;;;;;4904770;29;20059;-77
2023/05/31 13:43:39;;;;;;;6.32;3.35;;;20.20;99.90;;;;;;4911812;29;20060;-75
2023/05/31 13:46:31;;;;;;;6.28;3.28;;;20.20;99.90;;;;;;4845115;29;20048;-77